createdAt,value
2022-07-30T00:00:51.081Z,96150.81
2022-07-30T00:03:18.302Z,96146.34
2022-07-30T00:05:45.566Z,96146.28
2022-07-30T00:08:12.728Z,96147.41
2022-07-30T00:10:40.536Z,96140.88
2022-07-30T00:13:08.032Z,96140.19
2022-07-30T00:15:35.199Z,96140.94
2022-07-30T00:18:02.340Z,96148.78
2022-07-30T00:20:29.539Z,96145.47
2022-07-30T00:22:57.010Z,96136.28
2022-07-30T00:25:24.899Z,96150.84
2022-07-30T00:27:52.197Z,96136.47
2022-07-30T00:30:19.289Z,96135.91
2022-07-30T00:32:46.466Z,96132.25
2022-07-30T00:35:13.767Z,96127.56
2022-07-30T00:37:40.892Z,96132.09
2022-07-30T00:40:09.188Z,96136.75
2022-07-30T00:42:38.364Z,96126.53
2022-07-30T00:45:07.182Z,96125.47
2022-07-30T00:47:34.322Z,96122.44
2022-07-30T00:50:04.288Z,96123.03
2022-07-30T00:52:32.481Z,96126.94
2022-07-30T00:55:01.109Z,96135.56
2022-07-30T00:57:28.401Z,96119.66
2022-07-30T00:59:55.949Z,96131.22
2022-07-30T01:02:23.128Z,96135.47
2022-07-30T01:04:50.256Z,96135.00
2022-07-30T01:07:19.903Z,96130.78
2022-07-30T01:09:48.076Z,96134.94
2022-07-30T01:12:19.622Z,96140.72
2022-07-30T01:14:46.797Z,96130.81
2022-07-30T01:17:14.113Z,96140.75
2022-07-30T01:19:53.834Z,96138.38
2022-07-30T01:22:30.584Z,96134.47
2022-07-30T01:25:04.137Z,96135.00
2022-07-30T01:27:44.050Z,96133.22
2022-07-30T01:30:12.890Z,96139.00
2022-07-30T01:32:45.383Z,96135.84
2022-07-30T01:35:14.804Z,96141.72
2022-07-30T01:37:43.283Z,96135.84
2022-07-30T01:40:12.389Z,96122.66
2022-07-30T01:42:40.821Z,96126.41
2022-07-30T01:45:10.366Z,96122.38
2022-07-30T01:47:38.653Z,96128.06
2022-07-30T01:50:11.002Z,96124.53
2022-07-30T01:52:38.838Z,96126.81
2022-07-30T01:55:17.281Z,96130.16
2022-07-30T01:57:48.110Z,96119.75
2022-07-30T02:00:17.231Z,96129.66
2022-07-30T02:02:45.499Z,96129.81
2022-07-30T02:05:14.856Z,96130.50
2022-07-30T02:08:12.678Z,96129.13
2022-07-30T02:10:53.992Z,96129.50
2022-07-30T02:13:25.775Z,96136.22
2022-07-30T02:15:58.770Z,96133.06
2022-07-30T02:18:56.903Z,96130.44
2022-07-30T02:21:36.631Z,96134.69
2022-07-30T02:24:23.738Z,96130.66
2022-07-30T02:26:59.916Z,96128.50
2022-07-30T02:29:28.077Z,96128.38
2022-07-30T02:31:57.766Z,96130.81
2022-07-30T02:34:26.651Z,96137.63
2022-07-30T02:36:54.868Z,96126.59
2022-07-30T02:39:22.802Z,96133.59
2022-07-30T02:41:50.501Z,96129.44
2022-07-30T02:44:20.060Z,96130.66
2022-07-30T02:46:49.850Z,96127.44
2022-07-30T02:49:38.645Z,96133.72
2022-07-30T02:52:13.169Z,96127.44
2022-07-30T02:54:43.024Z,96131.81
2022-07-30T02:57:10.857Z,96138.34
2022-07-30T02:59:41.209Z,96133.44
2022-07-30T03:02:11.768Z,96135.34
2022-07-30T03:04:43.277Z,96137.97
2022-07-30T03:07:12.088Z,96134.50
2022-07-30T03:09:51.477Z,96136.81
2022-07-30T03:12:22.545Z,96132.13
2022-07-30T03:14:52.037Z,96139.09
2022-07-30T03:17:21.879Z,96143.41
2022-07-30T03:19:50.394Z,96138.88
2022-07-30T03:22:19.894Z,96138.75
2022-07-30T03:24:49.225Z,96143.63
2022-07-30T03:27:17.042Z,96147.03
2022-07-30T03:29:45.863Z,96152.25
2022-07-30T03:32:14.018Z,96148.97
2022-07-30T03:34:43.810Z,96150.97
2022-07-30T03:37:11.922Z,96152.00
2022-07-30T03:39:40.650Z,96144.66
2022-07-30T03:42:08.743Z,96153.28
2022-07-30T03:44:37.557Z,96140.75
2022-07-30T03:47:07.850Z,96147.56
2022-07-30T03:49:42.106Z,96144.44
2022-07-30T03:52:10.985Z,96143.69
2022-07-30T03:54:38.263Z,96153.25
2022-07-30T03:57:35.092Z,96156.19
2022-07-30T04:00:05.354Z,96159.84
2022-07-30T04:02:44.781Z,96155.09
2022-07-30T04:05:37.478Z,96153.47
2022-07-30T04:08:09.210Z,96156.97
2022-07-30T04:10:36.433Z,96153.56
2022-07-30T04:13:09.403Z,96152.56
2022-07-30T04:16:05.575Z,96163.78
2022-07-30T04:18:43.992Z,96158.63
2022-07-30T04:21:17.142Z,96154.25
2022-07-30T04:24:03.623Z,96166.50
2022-07-30T04:26:35.302Z,96173.78
2022-07-30T04:29:07.416Z,96163.94
2022-07-30T04:31:38.424Z,96161.44
2022-07-30T04:34:52.606Z,96170.81
2022-07-30T04:37:37.963Z,96176.38
2022-07-30T04:40:06.347Z,96173.81
2022-07-30T04:42:33.789Z,96175.84
2022-07-30T04:45:06.741Z,96175.66
2022-07-30T04:47:47.543Z,96178.84
2022-07-30T04:50:28.082Z,96175.38
2022-07-30T04:52:56.334Z,96182.34
2022-07-30T04:55:28.291Z,96180.75
2022-07-30T04:57:57.551Z,96189.56
2022-07-30T05:00:24.747Z,96190.19
2022-07-30T05:02:54.951Z,96192.72
2022-07-30T05:05:23.830Z,96198.31
2022-07-30T05:07:51.523Z,96189.06
2022-07-30T05:10:19.269Z,96192.69
2022-07-30T05:12:46.737Z,96191.50
2022-07-30T05:15:16.500Z,96198.13
2022-07-30T05:17:45.149Z,96202.63
2022-07-30T05:20:13.246Z,96202.41
2022-07-30T05:23:06.461Z,96209.16
2022-07-30T05:25:34.045Z,96209.56
2022-07-30T05:28:14.323Z,96212.16
2022-07-30T05:30:42.329Z,96208.03
2022-07-30T05:33:16.304Z,96205.78
2022-07-30T05:35:44.401Z,96213.25
2022-07-30T05:38:11.664Z,96211.63
2022-07-30T05:40:51.862Z,96212.16
2022-07-30T05:43:38.956Z,96213.56
2022-07-30T05:46:06.159Z,96216.19
2022-07-30T05:48:35.547Z,96209.69
2022-07-30T05:51:03.049Z,96218.97
2022-07-30T05:53:30.141Z,96210.22
2022-07-30T05:56:28.252Z,96216.06
2022-07-30T05:59:05.054Z,96220.50
2022-07-30T06:01:52.158Z,96222.91
2022-07-30T06:04:25.912Z,96218.50
2022-07-30T06:06:59.245Z,96224.19
2022-07-30T06:09:36.611Z,96227.50
2022-07-30T06:12:05.556Z,96228.03
2022-07-30T06:14:32.926Z,96222.66
2022-07-30T06:17:01.106Z,96228.03
2022-07-30T06:19:38.988Z,96230.53
2022-07-30T06:22:07.306Z,96223.41
2022-07-30T06:24:40.737Z,96232.59
2022-07-30T06:27:12.964Z,96229.88
2022-07-30T06:29:40.286Z,96237.75
2022-07-30T06:32:07.478Z,96235.09
2022-07-30T06:34:34.817Z,96243.09
2022-07-30T06:37:02.452Z,96239.81
2022-07-30T06:39:56.251Z,96238.47
2022-07-30T06:42:20.302Z,96231.19
2022-07-30T06:45:06.162Z,96233.38
2022-07-30T06:48:08.485Z,96238.66
2022-07-30T06:50:36.875Z,96234.91
2022-07-30T06:53:04.313Z,96240.38
2022-07-30T06:55:51.355Z,96236.75
2022-07-30T06:58:25.776Z,96246.81
2022-07-30T07:01:31.207Z,96241.63
2022-07-30T07:03:58.767Z,96239.84
2022-07-30T07:06:26.458Z,96241.75
2022-07-30T07:08:53.590Z,96244.47
2022-07-30T07:11:28.286Z,96242.44
2022-07-30T07:14:01.401Z,96246.38
2022-07-30T07:16:35.113Z,96249.97
2022-07-30T07:20:01.456Z,96250.03
2022-07-30T07:22:09.573Z,96243.47
2022-07-30T07:24:37.523Z,96241.72
2022-07-30T07:27:15.679Z,96247.66
2022-07-30T07:30:01.511Z,96248.78
2022-07-30T07:32:34.220Z,96249.63
2022-07-30T07:35:01.625Z,96242.56
2022-07-30T07:37:29.576Z,96248.47
2022-07-30T07:39:56.877Z,96243.41
2022-07-30T07:42:24.606Z,96246.75
2022-07-30T07:44:53.081Z,96252.22
2022-07-30T07:47:20.258Z,96240.16
2022-07-30T07:50:03.290Z,96242.94
2022-07-30T07:52:30.749Z,96250.53
2022-07-30T07:54:57.825Z,96245.50
2022-07-30T07:57:26.461Z,96248.31
2022-07-30T07:59:55.436Z,96248.78
2022-07-30T08:02:27.305Z,96245.34
2022-07-30T08:05:06.226Z,96252.25
2022-07-30T08:07:58.389Z,96256.38
2022-07-30T08:10:57.783Z,96250.56
2022-07-30T08:14:03.097Z,96247.00
2022-07-30T08:16:49.457Z,96253.34
2022-07-30T08:19:35.315Z,96248.75
2022-07-30T08:22:17.006Z,96251.63
2022-07-30T08:24:44.180Z,96253.81
2022-07-30T08:27:11.349Z,96253.03
2022-07-30T08:29:39.076Z,96255.44
2022-07-30T08:32:06.415Z,96260.44
2022-07-30T08:34:36.655Z,96260.38
2022-07-30T08:37:04.440Z,96253.53
2022-07-30T08:39:31.693Z,96245.00
2022-07-30T08:42:00.452Z,96254.03
2022-07-30T08:44:29.379Z,96260.06
2022-07-30T08:46:59.231Z,96253.06
2022-07-30T08:49:49.896Z,96255.72
2022-07-30T08:52:22.865Z,96259.28
2022-07-30T08:55:01.055Z,96252.75
2022-07-30T08:57:33.674Z,96263.00
2022-07-30T09:00:03.632Z,96257.25
2022-07-30T09:02:31.795Z,96264.09
2022-07-30T09:05:04.962Z,96260.94
2022-07-30T09:07:36.595Z,96257.97
2022-07-30T09:10:06.256Z,96271.72
2022-07-30T09:12:35.815Z,96270.31
2022-07-30T09:15:19.378Z,96269.22
2022-07-30T09:17:53.878Z,96272.34
2022-07-30T09:20:24.989Z,96273.31
2022-07-30T09:22:55.488Z,96268.63
2022-07-30T09:25:48.187Z,96277.53
2022-07-30T09:28:34.271Z,96274.09
2022-07-30T09:31:21.375Z,96266.97
2022-07-30T09:34:24.266Z,96271.63
2022-07-30T09:37:02.243Z,96263.84
2022-07-30T09:39:56.298Z,96259.47
2022-07-30T09:42:45.621Z,96265.00
2022-07-30T09:45:15.879Z,96273.56
2022-07-30T09:47:48.312Z,96267.28
2022-07-30T09:50:17.891Z,96262.59
2022-07-30T09:53:07.238Z,96265.94
2022-07-30T09:55:41.061Z,96278.47
2022-07-30T09:58:12.853Z,96275.47
2022-07-30T10:00:47.358Z,96272.50
2022-07-30T10:03:34.507Z,96276.91
2022-07-30T10:06:35.653Z,96280.72
2022-07-30T10:09:25.623Z,96269.16
2022-07-30T10:11:56.168Z,96272.38
2022-07-30T10:14:31.368Z,96264.50
2022-07-30T10:17:00.844Z,96275.31
2022-07-30T10:19:39.968Z,96259.97
2022-07-30T10:22:28.877Z,96262.72
2022-07-30T10:25:18.877Z,96262.66
2022-07-30T10:28:20.234Z,96247.63
2022-07-30T10:30:50.717Z,96246.19
2022-07-30T10:33:35.158Z,96252.81
2022-07-30T10:36:06.195Z,96264.22
2022-07-30T10:38:41.370Z,96262.81
2022-07-30T10:41:48.115Z,96252.69
2022-07-30T10:44:40.634Z,96258.94
2022-07-30T10:47:11.313Z,96275.78
2022-07-30T10:49:41.357Z,96257.06
2022-07-30T10:52:12.014Z,96267.97
2022-07-30T10:54:41.957Z,96261.25
2022-07-30T10:57:23.072Z,96264.53
2022-07-30T10:59:59.892Z,96260.66
2022-07-30T11:02:34.974Z,96257.72
2022-07-30T11:05:45.211Z,96254.28
2022-07-30T11:08:50.391Z,96266.59
2022-07-30T11:11:20.904Z,96255.13
2022-07-30T11:14:08.159Z,96257.09
2022-07-30T11:16:35.219Z,96247.75
2022-07-30T11:19:53.182Z,96252.44
2022-07-30T11:22:33.059Z,96260.84
2022-07-30T11:25:00.470Z,96256.78
2022-07-30T11:27:37.820Z,96254.88
2022-07-30T11:30:26.611Z,96255.91
2022-07-30T11:32:56.872Z,96266.31
2022-07-30T11:35:26.492Z,96242.94
2022-07-30T11:38:04.597Z,96254.38
2022-07-30T11:40:47.179Z,96244.00
2022-07-30T11:43:34.678Z,96238.00
2022-07-30T11:46:10.242Z,96238.13
2022-07-30T11:48:39.894Z,96241.72
2022-07-30T11:51:06.881Z,96244.25
2022-07-30T11:53:34.812Z,96244.78
2022-07-30T11:56:03.458Z,96252.41
2022-07-30T11:58:32.772Z,96232.00
2022-07-30T12:01:09.287Z,96240.13
2022-07-30T12:03:41.240Z,96254.78
2022-07-30T12:06:19.789Z,96237.19
2022-07-30T12:08:49.588Z,96239.34
2022-07-30T12:11:17.389Z,96235.75
2022-07-30T12:13:55.058Z,96237.09
2022-07-30T12:16:22.285Z,96233.56
2022-07-30T12:18:49.489Z,96224.88
2022-07-30T12:21:16.971Z,96229.75
2022-07-30T12:24:02.047Z,96231.38
2022-07-30T12:26:32.336Z,96229.16
2022-07-30T12:29:03.215Z,96225.53
2022-07-30T12:31:30.745Z,96225.53
2022-07-30T12:33:59.063Z,96225.16
2022-07-30T12:36:34.452Z,96230.13
2022-07-30T12:39:03.884Z,96225.88
2022-07-30T12:41:50.284Z,96235.88
2022-07-30T12:44:44.816Z,96228.59
2022-07-30T12:47:28.626Z,96224.06
2022-07-30T12:49:58.140Z,96225.16
2022-07-30T12:52:35.482Z,96216.06
2022-07-30T12:55:11.577Z,96220.41
2022-07-30T12:57:54.047Z,96211.19
2022-07-30T13:00:22.731Z,96222.84
2022-07-30T13:02:51.518Z,96211.19
2022-07-30T13:05:18.770Z,96220.28
2022-07-30T13:07:59.095Z,96218.00
2022-07-30T13:10:30.810Z,96219.31
2022-07-30T13:12:59.705Z,96226.34
2022-07-30T13:15:26.833Z,96214.69
2022-07-30T13:17:54.254Z,96210.59
2022-07-30T13:20:22.112Z,96221.81
2022-07-30T13:22:49.308Z,96206.06
2022-07-30T13:25:16.490Z,96210.31
2022-07-30T13:27:43.565Z,96213.34
2022-07-30T13:30:11.182Z,96206.38
2022-07-30T13:32:38.287Z,96211.19
2022-07-30T13:35:05.920Z,96205.47
2022-07-30T13:37:37.934Z,96211.19
2022-07-30T13:40:07.182Z,96217.06
2022-07-30T13:42:34.758Z,96198.94
2022-07-30T13:45:01.930Z,96216.13
2022-07-30T13:47:29.251Z,96205.00
2022-07-30T13:49:56.422Z,96201.03
2022-07-30T13:52:23.568Z,96194.03
2022-07-30T13:54:52.358Z,96193.00
2022-07-30T13:57:19.882Z,96195.56
2022-07-30T13:59:46.985Z,96193.97
2022-07-30T14:02:14.577Z,96183.94
2022-07-30T14:04:41.678Z,96192.41
2022-07-30T14:07:08.812Z,96189.16
2022-07-30T14:09:44.699Z,96171.53
2022-07-30T14:12:15.385Z,96185.16
2022-07-30T14:14:42.548Z,96128.56
2022-07-30T14:17:09.686Z,96184.16
2022-07-30T14:19:36.835Z,96182.47
2022-07-30T14:22:03.967Z,96186.25
2022-07-30T14:24:31.144Z,96201.44
2022-07-30T14:26:58.604Z,96185.13
2022-07-30T14:29:27.176Z,96186.56
2022-07-30T14:31:54.896Z,96182.63
2022-07-30T14:34:22.511Z,96180.22
2022-07-30T14:36:49.649Z,96174.38
2022-07-30T14:39:16.717Z,96190.56
2022-07-30T14:41:43.849Z,96186.88
2022-07-30T14:44:12.275Z,96189.00
2022-07-30T14:46:52.363Z,96179.94
2022-07-30T14:49:27.445Z,96199.63
2022-07-30T14:51:54.962Z,96190.84
2022-07-30T14:54:22.537Z,96176.31
2022-07-30T14:56:59.430Z,96189.88
2022-07-30T14:59:27.759Z,96177.47
2022-07-30T15:01:56.324Z,96186.25
2022-07-30T15:04:23.801Z,96188.66
2022-07-30T15:06:50.947Z,96173.53
2022-07-30T15:09:19.747Z,96190.81
2022-07-30T15:14:34.174Z,96195.03
2022-07-30T15:17:04.186Z,96199.38
2022-07-30T15:19:32.769Z,96194.53
2022-07-30T15:22:02.407Z,96186.53
2022-07-30T15:24:30.909Z,96188.75
2022-07-30T15:26:58.161Z,96195.59
2022-07-30T15:29:27.218Z,96185.59
2022-07-30T15:31:54.397Z,96186.78
2022-07-30T15:34:21.928Z,96197.09
2022-07-30T15:36:49.101Z,96210.19
2022-07-30T15:39:16.420Z,96198.13
2022-07-30T15:41:43.667Z,96202.34
2022-07-30T15:44:10.878Z,96203.19
2022-07-30T15:46:37.967Z,96204.81
2022-07-30T15:49:05.152Z,96202.53
2022-07-30T15:51:33.108Z,96206.16
2022-07-30T15:54:00.202Z,96208.69
2022-07-30T15:56:28.267Z,96201.34
2022-07-30T15:58:55.734Z,96196.72
2022-07-30T16:01:23.010Z,96203.31
2022-07-30T16:03:50.227Z,96192.16
2022-07-30T16:06:17.368Z,96192.34
2022-07-30T16:08:44.557Z,96187.25
2022-07-30T16:11:11.641Z,96187.19
2022-07-30T16:13:38.832Z,96186.78
2022-07-30T16:16:06.057Z,96181.28
2022-07-30T16:18:33.420Z,96186.44
2022-07-30T16:21:01.302Z,96183.41
2022-07-30T16:23:36.449Z,96183.59
2022-07-30T16:26:04.296Z,96186.00
2022-07-30T16:28:31.826Z,96190.09
2022-07-30T16:30:58.990Z,96188.09
2022-07-30T16:33:26.287Z,96178.72
2022-07-30T16:35:53.472Z,96182.50
2022-07-30T16:38:23.023Z,96169.91
2022-07-30T16:40:50.316Z,96179.72
2022-07-30T16:43:19.546Z,96187.78
2022-07-30T16:45:47.505Z,96179.31
2022-07-30T16:48:14.816Z,96185.50
2022-07-30T16:50:42.430Z,96181.56
2022-07-30T16:53:13.778Z,96176.59
2022-07-30T16:55:43.353Z,96176.41
2022-07-30T16:58:10.996Z,96180.03
2022-07-30T17:00:38.353Z,96183.94
2022-07-30T17:03:05.591Z,96186.19
2022-07-30T17:05:32.839Z,96188.06
2022-07-30T17:08:00.143Z,96188.38
2022-07-30T17:10:27.342Z,96188.00
2022-07-30T17:12:57.093Z,96193.66
2022-07-30T17:15:32.632Z,96190.97
2022-07-30T17:18:01.732Z,96190.03
2022-07-30T17:20:29.976Z,96185.22
2022-07-30T17:22:57.458Z,96179.31
2022-07-30T17:25:28.238Z,96182.28
2022-07-30T17:27:56.879Z,96200.59
2022-07-30T17:30:25.564Z,96194.41
2022-07-30T17:32:53.171Z,96191.81
2022-07-30T17:35:21.134Z,96194.00
2022-07-30T17:37:48.460Z,96193.09
2022-07-30T17:40:29.143Z,96189.56
2022-07-30T17:43:05.886Z,96194.47
2022-07-30T17:45:34.322Z,96202.19
2022-07-30T17:48:02.331Z,96203.00
2022-07-30T17:50:30.820Z,96200.09
2022-07-30T17:52:58.205Z,96196.53
2022-07-30T17:55:25.472Z,96192.78
2022-07-30T17:57:52.644Z,96197.09
2022-07-30T18:00:20.030Z,96195.84
2022-07-30T18:02:47.154Z,96202.63
2022-07-30T18:05:17.154Z,96200.72
2022-07-30T18:07:44.642Z,96197.09
2022-07-30T18:10:12.201Z,96201.97
2022-07-30T18:12:39.522Z,96199.75
2022-07-30T18:15:17.688Z,96201.13
2022-07-30T18:17:45.150Z,96205.16
2022-07-30T18:20:12.368Z,96206.88
2022-07-30T18:22:40.315Z,96202.97
2022-07-30T18:25:08.457Z,96201.00
2022-07-30T18:27:46.047Z,96207.38
2022-07-30T18:30:13.343Z,96202.13
2022-07-30T18:32:40.449Z,96209.63
2022-07-30T18:35:13.489Z,96211.94
2022-07-30T18:37:42.089Z,96213.72
2022-07-30T18:40:10.657Z,96215.09
2022-07-30T18:42:37.771Z,96215.78
2022-07-30T18:45:05.829Z,96212.56
2022-07-30T18:47:32.966Z,96222.66
2022-07-30T18:50:00.367Z,96220.03
2022-07-30T18:52:27.575Z,96219.53
2022-07-30T18:54:54.694Z,96228.28
2022-07-30T18:57:21.813Z,96223.00
2022-07-30T18:59:49.214Z,96222.09
2022-07-30T19:02:16.371Z,96226.91
2022-07-30T19:04:43.602Z,96226.91
2022-07-30T19:07:11.018Z,96232.31
2022-07-30T19:09:38.129Z,96237.94
2022-07-30T19:12:05.816Z,96231.91
2022-07-30T19:14:33.229Z,96239.84
2022-07-30T19:17:00.375Z,96238.19
2022-07-30T19:19:27.556Z,96243.91
2022-07-30T19:21:55.093Z,96250.31
2022-07-30T19:24:22.387Z,96242.72
2022-07-30T19:26:52.773Z,96241.47
2022-07-30T19:29:19.971Z,96244.59
2022-07-30T19:31:48.200Z,96247.91
2022-07-30T19:34:15.410Z,96247.56
2022-07-30T19:36:42.547Z,96251.06
2022-07-30T19:39:13.241Z,96248.56
2022-07-30T19:41:51.014Z,96258.28
2022-07-30T19:44:18.996Z,96265.78
2022-07-30T19:46:46.572Z,96260.91
2022-07-30T19:49:17.181Z,96267.56
2022-07-30T19:52:22.399Z,96270.34
2022-07-30T19:54:34.374Z,96282.63
2022-07-30T19:57:04.439Z,96276.47
2022-07-30T19:59:55.743Z,96279.59
2022-07-30T20:02:18.823Z,96291.72
2022-07-30T20:04:49.759Z,96293.13
2022-07-30T20:07:16.942Z,96288.03
2022-07-30T20:09:44.934Z,96293.03
2022-07-30T20:12:15.672Z,96290.69
2022-07-30T20:14:44.588Z,96285.41
2022-07-30T20:17:12.068Z,96293.97
2022-07-30T20:19:40.662Z,96298.69
2022-07-30T20:22:16.392Z,96289.34
2022-07-30T20:24:44.916Z,96298.09
2022-07-30T20:27:38.211Z,96296.56
2022-07-30T20:29:59.181Z,96292.47
2022-07-30T20:32:26.677Z,96295.94
2022-07-30T20:34:53.835Z,96294.72
2022-07-30T20:37:22.307Z,96291.13
2022-07-30T20:39:50.193Z,96295.31
2022-07-30T20:42:17.374Z,96303.13
2022-07-30T20:44:50.550Z,96299.75
2022-07-30T20:47:34.469Z,96297.84
2022-07-30T20:50:10.638Z,96307.09
2022-07-30T20:52:40.263Z,96305.22
2022-07-30T20:55:09.467Z,96317.56
2022-07-30T20:57:56.754Z,96306.34
2022-07-30T21:00:25.247Z,96314.59
2022-07-30T21:02:52.441Z,96319.44
2022-07-30T21:05:19.857Z,96319.78
2022-07-30T21:07:47.513Z,96311.50
2022-07-30T21:10:14.945Z,96320.69
2022-07-30T21:12:44.836Z,96325.66
2022-07-30T21:15:32.498Z,96326.72
2022-07-30T21:18:00.120Z,96323.94
2022-07-30T21:20:30.769Z,96318.47
2022-07-30T21:23:11.375Z,96318.78
2022-07-30T21:26:00.050Z,96314.13
2022-07-30T21:28:29.183Z,96322.22
2022-07-30T21:30:57.362Z,96305.72
2022-07-30T21:33:31.047Z,96312.81
2022-07-30T21:35:59.353Z,96322.50
2022-07-30T21:38:27.537Z,96311.28
2022-07-30T21:40:55.847Z,96314.72
2022-07-30T21:43:29.518Z,96311.59
2022-07-30T21:46:03.780Z,96311.59
2022-07-30T21:48:33.805Z,96305.03
2022-07-30T21:51:01.507Z,96305.63
2022-07-30T21:53:29.641Z,96309.38
2022-07-30T21:56:12.985Z,96302.38
2022-07-30T21:58:40.878Z,96303.47
2022-07-30T22:01:18.026Z,96303.41
2022-07-30T22:04:04.694Z,96309.34
2022-07-30T22:06:46.746Z,96307.50
2022-07-30T22:09:19.264Z,96312.16
2022-07-30T22:12:06.467Z,96311.19
2022-07-30T22:14:39.043Z,96307.16
2022-07-30T22:17:06.302Z,96314.94
2022-07-30T22:19:50.670Z,96311.53
2022-07-30T22:22:27.712Z,96308.31
2022-07-30T22:24:58.284Z,96308.84
2022-07-30T22:27:39.513Z,96303.16
2022-07-30T22:30:09.781Z,96314.97
2022-07-30T22:32:37.584Z,96294.75
2022-07-30T22:35:07.219Z,96310.72
2022-07-30T22:37:34.384Z,96302.13
2022-07-30T22:40:01.897Z,96312.84
2022-07-30T22:42:29.020Z,96303.16
2022-07-30T22:44:57.550Z,96305.28
2022-07-30T22:47:50.922Z,96304.78
2022-07-30T22:50:12.517Z,96298.63
2022-07-30T22:55:29.885Z,96299.59
2022-07-30T22:57:58.981Z,96300.25
2022-07-30T23:00:28.327Z,96301.91
2022-07-30T23:02:56.665Z,96299.50
2022-07-30T23:05:24.338Z,96309.81
2022-07-30T23:07:52.014Z,96303.00
2022-07-30T23:10:20.771Z,96301.50
2022-07-30T23:12:30.687Z,96303.59
2022-07-30T23:12:51.204Z,96300.44
2022-07-30T23:15:19.766Z,96303.25
2022-07-30T23:17:47.673Z,96298.41
2022-07-30T23:20:17.207Z,96296.59
2022-07-30T23:22:44.391Z,96301.41
2022-07-30T23:25:12.477Z,96294.28
2022-07-30T23:27:40.723Z,96291.38
2022-07-30T23:30:10.295Z,96294.50
2022-07-30T23:32:38.115Z,96286.56
2022-07-30T23:35:07.207Z,96289.97
2022-07-30T23:37:48.425Z,96290.22
2022-07-30T23:40:18.547Z,96293.84
2022-07-30T23:42:47.291Z,96284.28
2022-07-30T23:45:14.671Z,96280.84
2022-07-30T23:48:00.397Z,96277.03
2022-07-30T23:50:30.832Z,96281.22
2022-07-30T23:52:58.188Z,96272.38
2022-07-30T23:55:26.968Z,96273.53
2022-07-30T23:57:54.298Z,96278.63
